KGED/GED METAR and TAF weather

Enter ICAO airport designator
Station Type Date Time Source
KGED METAR 2019/04/25 07:54 UTC NOAA

KGED 250754Z AUTO 00000KT 10SM BKN110 13/10 A2989 RMK AO2 SLP121 T01280100 $


Station Type Date Time Source
KGED Decoded METAR 2019/04/25 07:54 UTC NOAA

GEORGETOWN SUSSEX CO AIRPORT , DE, United States (KGED) 38-41N 075-22W 19M
Apr 25, 2019 - 03:54 AM EDT / 2019.04.25 0754 UTC
Wind: Calm:0
Visibility: 10 mile(s):0
Sky conditions: mostly cloudy
Temperature: 55.0 F (12.8 C)
Dew Point: 50.0 F (10.0 C)
Relative Humidity: 83%
Pressure (altimeter): 29.89 in. Hg (1012 hPa)
ob: KGED 250754Z AUTO 00000KT 10SM BKN110 13/10 A2989 RMK AO2 SLP121 T01280100
cycle: 8

Station Type Date Time Source
KGED TAF UTC NOAA

Error!

Example: see airport list